Weissert, Nebraska
Current Conditions -  °F | °C
As of 2:53 PM on Friday 19 Dec 2014 (Local Time) from KBBW Reporting Station
Clear Clear  
Wind Chill: 29°   Ceiling: Unl
Heat Index: 35°   Visibility: 10mi
Dew Point: 30°   Wind: 7mph
Humidity: 82%   Direction: 190°S
Pressure: 30"   Gusts: NA
Location:  41.47°N, 99.44°W
Report Text: KBBW 192053Z AUTO 19006KT 10SM CLR 02/M01 A3000 RMK AO2 SLP183 T00171011 56018
Loading
Personal Weather Stations






























Interactive Weather Map New forecast layout! Learn more

10-Day Weather Forecast

Advertisements
Track Severe Weather on mobile